createdAt,value
2018-11-29T00:00:17.109Z,92.70
2018-11-29T00:02:45.413Z,92.70
2018-11-29T00:05:13.609Z,92.50
2018-11-29T00:07:41.999Z,92.70
2018-11-29T00:10:10.204Z,92.90
2018-11-29T00:12:38.433Z,93.10
2018-11-29T00:15:08.972Z,93.00
2018-11-29T00:17:37.965Z,92.70
2018-11-29T00:20:22.729Z,92.70
2018-11-29T00:22:51.374Z,92.90
2018-11-29T00:25:19.876Z,92.90
2018-11-29T00:27:48.314Z,93.00
2018-11-29T00:30:20.348Z,93.10
2018-11-29T00:32:48.866Z,92.90
2018-11-29T00:35:17.384Z,92.90
2018-11-29T00:37:45.676Z,92.90
2018-11-29T00:40:15.475Z,93.10
2018-11-29T00:42:43.755Z,92.80
2018-11-29T00:45:15.964Z,92.80
2018-11-29T00:47:44.828Z,92.70
2018-11-29T00:50:13.940Z,92.80
2018-11-29T00:52:43.937Z,92.60
2018-11-29T00:55:20.806Z,93.10
2018-11-29T00:57:49.019Z,93.10
2018-11-29T01:00:20.354Z,93.30
2018-11-29T01:02:48.733Z,93.00
2018-11-29T01:05:17.025Z,93.00
2018-11-29T01:07:45.253Z,92.60
2018-11-29T01:10:14.247Z,92.50
2018-11-29T01:12:42.502Z,92.40
2018-11-29T01:15:11.740Z,92.90
2018-11-29T01:17:39.940Z,93.50
2018-11-29T01:20:10.360Z,93.60
2018-11-29T01:22:38.591Z,93.40
2018-11-29T01:25:08.201Z,93.20
2018-11-29T01:27:36.414Z,93.10
2018-11-29T01:30:06.494Z,93.00
2018-11-29T01:32:34.718Z,93.10
2018-11-29T01:35:02.901Z,93.20
2018-11-29T01:37:31.084Z,93.00
2018-11-29T01:39:59.297Z,93.00
2018-11-29T01:42:27.496Z,92.90
2018-11-29T01:44:55.687Z,93.00
2018-11-29T01:47:23.894Z,93.10
2018-11-29T01:49:52.076Z,92.80
2018-11-29T01:52:20.283Z,92.70
2018-11-29T01:54:48.484Z,92.80
2018-11-29T01:57:16.681Z,92.90
2018-11-29T01:59:44.880Z,93.10
2018-11-29T02:02:13.107Z,93.00
2018-11-29T02:04:41.292Z,93.20
2018-11-29T02:07:09.497Z,93.30
2018-11-29T02:09:37.747Z,93.50
2018-11-29T02:12:05.968Z,93.30
2018-11-29T02:14:34.184Z,93.20
2018-11-29T02:17:02.400Z,93.40
2018-11-29T02:19:30.605Z,93.60
2018-11-29T02:21:58.800Z,93.30
2018-11-29T02:24:27.001Z,93.30
2018-11-29T02:26:55.213Z,93.30
2018-11-29T02:29:23.410Z,93.10
2018-11-29T02:31:51.599Z,93.20
2018-11-29T02:34:19.813Z,93.00
2018-11-29T02:36:48.000Z,92.90
2018-11-29T02:39:16.188Z,92.80
2018-11-29T02:41:44.398Z,92.70
2018-11-29T02:44:12.585Z,92.70
2018-11-29T02:46:40.793Z,92.70
2018-11-29T02:49:09.033Z,92.70
2018-11-29T02:51:37.212Z,92.90
2018-11-29T02:54:05.468Z,93.30
2018-11-29T02:56:33.684Z,93.30
2018-11-29T02:59:01.868Z,93.40
2018-11-29T03:01:30.056Z,93.50
2018-11-29T03:03:58.252Z,94.40
2018-11-29T03:06:26.430Z,94.30
2018-11-29T03:08:54.610Z,94.70
2018-11-29T03:11:22.790Z,95.00
2018-11-29T03:13:50.968Z,95.40
2018-11-29T03:16:19.139Z,95.80
2018-11-29T03:18:47.313Z,96.10
2018-11-29T03:21:15.484Z,96.40
2018-11-29T03:23:43.651Z,96.70
2018-11-29T03:26:11.824Z,96.90
2018-11-29T03:28:40.004Z,97.00
2018-11-29T03:31:08.149Z,97.00
2018-11-29T03:33:36.322Z,97.10
2018-11-29T03:36:04.649Z,97.00
2018-11-29T03:38:32.809Z,97.00
2018-11-29T03:41:01.393Z,97.10
2018-11-29T03:43:29.576Z,97.10
2018-11-29T03:45:57.756Z,97.20
2018-11-29T03:48:25.914Z,97.20
2018-11-29T03:50:54.083Z,97.20
2018-11-29T03:53:22.277Z,97.10
2018-11-29T03:55:50.457Z,97.20
2018-11-29T03:58:18.621Z,97.20
2018-11-29T04:00:46.794Z,97.20
2018-11-29T04:03:14.969Z,97.20
2018-11-29T04:05:43.125Z,97.40
2018-11-29T04:08:11.307Z,97.40
2018-11-29T04:10:39.468Z,97.40
2018-11-29T04:13:07.632Z,97.40
2018-11-29T04:15:35.856Z,97.40
2018-11-29T04:18:04.020Z,97.30
2018-11-29T04:20:32.201Z,97.30
2018-11-29T04:23:00.368Z,97.30
2018-11-29T04:25:28.533Z,97.30
2018-11-29T04:27:56.708Z,97.40
2018-11-29T04:30:24.887Z,97.40
2018-11-29T04:32:53.374Z,97.40
2018-11-29T04:35:21.241Z,97.40
2018-11-29T04:37:49.414Z,97.40
2018-11-29T04:40:17.625Z,97.40
2018-11-29T04:42:45.848Z,97.30
2018-11-29T04:45:17.637Z,97.30
2018-11-29T04:47:46.076Z,97.30
2018-11-29T04:50:14.900Z,97.30
2018-11-29T04:52:43.075Z,97.40
2018-11-29T04:55:11.245Z,97.60
2018-11-29T04:57:39.418Z,97.40
2018-11-29T05:00:12.420Z,97.30
2018-11-29T05:02:40.625Z,97.30
2018-11-29T05:05:09.172Z,97.50
2018-11-29T05:07:37.456Z,97.50
2018-11-29T05:10:07.165Z,97.50
2018-11-29T05:12:35.350Z,97.60
2018-11-29T05:15:03.608Z,97.60
2018-11-29T05:17:31.781Z,97.60
2018-11-29T05:19:59.978Z,97.50
2018-11-29T05:22:28.161Z,97.60
2018-11-29T05:24:56.354Z,97.60
2018-11-29T05:27:24.532Z,97.60
2018-11-29T05:29:52.717Z,97.60
2018-11-29T05:32:20.872Z,97.60
2018-11-29T05:34:49.042Z,97.60
2018-11-29T05:37:17.220Z,97.50
2018-11-29T05:39:45.397Z,97.50
2018-11-29T05:42:13.564Z,97.50
2018-11-29T05:44:41.773Z,97.50
2018-11-29T05:47:09.954Z,97.60
2018-11-29T05:49:38.142Z,97.50
2018-11-29T05:52:06.313Z,97.60
2018-11-29T05:54:34.477Z,97.60
2018-11-29T05:57:02.648Z,97.60
2018-11-29T05:59:30.808Z,97.50
2018-11-29T06:01:59.001Z,97.50
2018-11-29T06:04:27.180Z,97.50
2018-11-29T06:06:55.384Z,97.40
2018-11-29T06:09:23.564Z,97.30
2018-11-29T06:11:51.744Z,97.40
2018-11-29T06:14:19.945Z,97.40
2018-11-29T06:16:48.169Z,97.40
2018-11-29T06:19:16.401Z,97.60
2018-11-29T06:21:44.600Z,97.70
2018-11-29T06:24:13.654Z,97.70
2018-11-29T06:26:40.997Z,97.80
2018-11-29T06:29:09.181Z,97.90
2018-11-29T06:31:37.378Z,97.90
2018-11-29T06:34:06.068Z,97.90
2018-11-29T06:36:34.265Z,98.00
2018-11-29T06:39:02.469Z,97.90
2018-11-29T06:41:30.651Z,97.90
2018-11-29T06:43:58.817Z,97.90
2018-11-29T06:46:27.009Z,97.90
2018-11-29T06:48:55.192Z,97.90
2018-11-29T06:51:23.369Z,97.80
2018-11-29T06:53:56.921Z,97.70
2018-11-29T06:56:25.129Z,97.90
2018-11-29T06:58:53.333Z,97.60
2018-11-29T07:01:21.521Z,97.60
2018-11-29T07:03:49.697Z,97.50
2018-11-29T07:06:17.924Z,97.40
2018-11-29T07:08:46.125Z,97.40
2018-11-29T07:11:14.350Z,97.30
2018-11-29T07:13:42.528Z,97.30
2018-11-29T07:16:10.714Z,97.20
2018-11-29T07:18:38.908Z,97.10
2018-11-29T07:21:18.430Z,97.00
2018-11-29T07:23:46.609Z,96.90
2018-11-29T07:26:14.802Z,96.60
2018-11-29T07:28:43.006Z,96.30
2018-11-29T07:31:11.190Z,96.00
2018-11-29T07:33:39.386Z,95.80
2018-11-29T07:36:07.561Z,95.60
2018-11-29T07:38:35.761Z,95.20
2018-11-29T07:41:03.942Z,95.30
2018-11-29T07:43:32.158Z,95.20
2018-11-29T07:45:59.644Z,95.00
2018-11-29T07:48:27.160Z,94.80
2018-11-29T07:50:54.660Z,94.60
2018-11-29T07:53:22.153Z,94.50
2018-11-29T07:55:50.975Z,94.40
2018-11-29T07:58:18.481Z,94.40
2018-11-29T08:00:45.988Z,94.20
2018-11-29T08:03:13.500Z,94.20
2018-11-29T08:05:41.025Z,94.30
2018-11-29T08:08:08.552Z,94.50
2018-11-29T08:10:36.761Z,94.40
2018-11-29T08:13:05.427Z,94.50
2018-11-29T08:15:33.658Z,94.40
2018-11-29T08:18:01.867Z,94.40
2018-11-29T08:20:30.077Z,94.40
2018-11-29T08:22:58.302Z,94.00
2018-11-29T08:25:26.553Z,93.00
2018-11-29T08:27:54.782Z,92.20
2018-11-29T08:30:22.984Z,91.30
2018-11-29T08:32:51.178Z,90.70
2018-11-29T08:35:19.358Z,90.20
2018-11-29T08:37:47.733Z,89.80
2018-11-29T08:40:20.753Z,89.70
2018-11-29T08:42:49.184Z,88.20
2018-11-29T08:45:17.372Z,88.20
2018-11-29T08:47:45.591Z,87.50
2018-11-29T08:50:14.488Z,87.20
2018-11-29T08:52:43.585Z,86.80
2018-11-29T08:55:19.345Z,85.70
2018-11-29T08:57:48.619Z,85.10
2018-11-29T09:00:19.671Z,84.50
2018-11-29T09:02:47.905Z,84.30
2018-11-29T09:05:16.164Z,84.30
2018-11-29T09:07:45.306Z,84.20
2018-11-29T09:10:16.772Z,84.10
2018-11-29T09:12:44.950Z,84.30
2018-11-29T09:15:14.759Z,84.70
2018-11-29T09:17:49.445Z,83.60
2018-11-29T09:20:19.496Z,82.70
2018-11-29T09:22:47.671Z,83.10
2018-11-29T09:25:17.741Z,82.80
2018-11-29T09:27:45.915Z,82.90
2018-11-29T09:30:17.935Z,83.20
2018-11-29T09:32:46.857Z,83.20
2018-11-29T09:35:15.106Z,83.10
2018-11-29T09:37:43.295Z,82.00
2018-11-29T09:40:16.054Z,81.80
2018-11-29T09:42:44.329Z,81.70
2018-11-29T09:45:13.582Z,80.90
2018-11-29T09:47:41.817Z,80.90
2018-11-29T09:50:11.227Z,80.90
2018-11-29T09:52:39.945Z,80.40
2018-11-29T09:55:09.397Z,81.10
2018-11-29T09:57:38.383Z,80.70
2018-11-29T10:00:27.794Z,81.60
2018-11-29T10:02:54.852Z,80.50
2018-11-29T10:05:23.064Z,79.30
2018-11-29T10:07:51.297Z,79.90
2018-11-29T10:10:19.483Z,79.70
2018-11-29T10:12:47.682Z,79.00
2018-11-29T10:15:15.929Z,79.40
2018-11-29T10:17:44.113Z,79.00
2018-11-29T10:20:12.754Z,78.50
2018-11-29T10:22:41.833Z,77.60
2018-11-29T10:25:13.197Z,77.40
2018-11-29T10:27:42.598Z,76.70
2018-11-29T10:30:30.665Z,76.00
2018-11-29T10:32:58.855Z,75.00
2018-11-29T10:35:27.144Z,75.70
2018-11-29T10:37:55.321Z,75.60
2018-11-29T10:40:23.529Z,75.70
2018-11-29T10:42:51.712Z,75.40
2018-11-29T10:45:20.483Z,75.80
2018-11-29T10:47:52.556Z,76.30
2018-11-29T10:50:18.407Z,76.40
2018-11-29T10:52:46.584Z,76.80
2018-11-29T10:55:15.824Z,75.40
2018-11-29T10:57:44.219Z,74.30
2018-11-29T11:00:24.975Z,73.20
2018-11-29T11:02:59.430Z,72.40
2018-11-29T11:05:27.644Z,72.20
2018-11-29T11:07:55.849Z,71.20
2018-11-29T11:10:24.039Z,71.00
2018-11-29T11:12:52.221Z,70.80
2018-11-29T11:15:20.431Z,69.50
2018-11-29T11:17:48.627Z,70.20
2018-11-29T11:20:16.827Z,69.80
2018-11-29T11:22:45.014Z,68.40
2018-11-29T11:25:13.335Z,68.00
2018-11-29T11:27:41.567Z,67.00
2018-11-29T11:30:17.553Z,65.40
2018-11-29T11:32:46.817Z,62.00
2018-11-29T11:35:15.004Z,54.00
2018-11-29T11:37:43.268Z,45.60
2018-11-29T11:40:12.541Z,31.60
2018-11-29T11:42:40.729Z,26.00
2018-11-29T11:45:13.017Z,19.40
2018-11-29T11:47:41.173Z,16.10
2018-11-29T11:50:15.286Z,12.90
2018-11-29T11:52:43.483Z,11.40
2018-11-29T11:55:18.706Z,10.10
2018-11-29T11:57:40.465Z,10.20
2018-11-29T12:00:18.046Z,9.50
2018-11-29T12:02:46.784Z,8.40
2018-11-29T12:05:14.233Z,8.40
2018-11-29T12:07:41.741Z,8.20
2018-11-29T12:10:11.744Z,9.00
2018-11-29T12:12:39.243Z,9.80
2018-11-29T12:15:09.492Z,12.10
2018-11-29T12:17:37.318Z,13.10
2018-11-29T12:20:06.561Z,14.00
2018-11-29T12:22:34.060Z,14.80
2018-11-29T12:25:02.197Z,16.40
2018-11-29T12:27:29.689Z,17.20
2018-11-29T12:29:57.892Z,18.70
2018-11-29T12:32:25.401Z,19.70
2018-11-29T12:34:52.904Z,19.70
2018-11-29T12:37:21.090Z,21.10
2018-11-29T12:39:49.302Z,22.30
2018-11-29T12:42:17.490Z,23.30
2018-11-29T12:44:45.682Z,24.30
2018-11-29T12:47:13.877Z,25.00
2018-11-29T12:49:42.062Z,25.20
2018-11-29T12:52:10.267Z,26.20
2018-11-29T12:54:38.838Z,27.00
2018-11-29T12:57:07.093Z,27.30
2018-11-29T12:59:35.262Z,27.70
2018-11-29T13:02:03.461Z,28.10
2018-11-29T13:04:32.285Z,29.80
2018-11-29T13:06:59.846Z,30.90
2018-11-29T13:09:28.025Z,31.30
2018-11-29T13:11:56.213Z,33.00
2018-11-29T13:14:24.412Z,33.00
2018-11-29T13:16:52.597Z,34.00
2018-11-29T13:19:20.784Z,34.50
2018-11-29T13:21:48.974Z,35.00
2018-11-29T13:24:17.150Z,35.50
2018-11-29T13:26:45.347Z,37.20
2018-11-29T13:29:13.559Z,38.60
2018-11-29T13:31:41.746Z,41.40
2018-11-29T13:34:10.002Z,43.30
2018-11-29T13:36:38.199Z,44.60
2018-11-29T13:39:09.291Z,48.00
2018-11-29T13:41:36.817Z,49.60
2018-11-29T13:44:05.134Z,51.90
2018-11-29T13:46:33.326Z,54.00
2018-11-29T13:49:01.514Z,55.70
2018-11-29T13:51:29.716Z,57.70
2018-11-29T13:53:57.919Z,60.00
2018-11-29T13:56:26.156Z,61.80
2018-11-29T13:58:54.375Z,62.80
2018-11-29T14:01:22.527Z,64.70
2018-11-29T14:03:50.734Z,67.10
2018-11-29T14:06:18.921Z,69.20
2018-11-29T14:08:47.122Z,70.60
2018-11-29T14:11:15.342Z,72.10
2018-11-29T14:13:43.635Z,72.80
2018-11-29T14:16:11.845Z,74.10
2018-11-29T14:18:40.069Z,74.50
2018-11-29T14:21:08.278Z,75.70
2018-11-29T14:23:36.469Z,76.80
2018-11-29T14:26:04.742Z,76.80
2018-11-29T14:28:32.941Z,77.10
2018-11-29T14:31:01.139Z,78.40
2018-11-29T14:33:29.338Z,78.10
2018-11-29T14:35:57.536Z,78.60
2018-11-29T14:38:25.731Z,79.20
2018-11-29T14:40:53.954Z,79.30
2018-11-29T14:43:22.136Z,80.20
2018-11-29T14:45:50.348Z,80.10
2018-11-29T14:48:18.575Z,80.70
2018-11-29T14:50:47.084Z,81.90
2018-11-29T14:53:15.282Z,81.90
2018-11-29T14:55:43.695Z,81.80
2018-11-29T14:58:13.094Z,82.60
2018-11-29T15:00:41.374Z,82.90
2018-11-29T15:03:12.181Z,84.10
2018-11-29T15:05:40.387Z,85.00
2018-11-29T15:08:09.482Z,85.50
2018-11-29T15:10:38.161Z,86.10
2018-11-29T15:13:07.854Z,86.80
2018-11-29T15:15:36.297Z,88.40
2018-11-29T15:18:11.153Z,89.20
2018-11-29T15:20:41.737Z,90.00
2018-11-29T15:23:11.073Z,90.00
2018-11-29T15:25:39.385Z,90.30
2018-11-29T15:28:07.640Z,90.30
2018-11-29T15:30:35.922Z,90.60
2018-11-29T15:33:04.188Z,90.80
2018-11-29T15:35:32.446Z,91.00
2018-11-29T15:38:00.677Z,91.00
2018-11-29T15:40:28.862Z,91.10
2018-11-29T15:42:57.250Z,91.30
2018-11-29T15:45:26.305Z,91.40
2018-11-29T15:47:54.489Z,91.60
2018-11-29T15:50:22.702Z,91.70
2018-11-29T15:52:51.107Z,91.90
2018-11-29T15:55:20.241Z,92.10
2018-11-29T15:57:52.590Z,92.30
2018-11-29T16:00:29.699Z,92.60
2018-11-29T16:03:01.127Z,92.80
2018-11-29T16:05:29.374Z,92.80
2018-11-29T16:07:57.699Z,92.70
2018-11-29T16:10:26.873Z,92.70
2018-11-29T16:12:55.205Z,92.70
2018-11-29T16:15:23.413Z,92.70
2018-11-29T16:17:52.498Z,92.80
2018-11-29T16:20:25.110Z,92.70
2018-11-29T16:22:53.525Z,92.90
2018-11-29T16:25:21.942Z,93.10
2018-11-29T16:27:50.147Z,93.30
2018-11-29T16:30:24.478Z,93.50
2018-11-29T16:32:52.907Z,93.70
2018-11-29T16:35:21.105Z,93.90
2018-11-29T16:37:49.297Z,93.90
2018-11-29T16:40:17.552Z,93.80
2018-11-29T16:42:45.706Z,93.80
2018-11-29T16:45:14.047Z,93.80
2018-11-29T16:47:42.573Z,93.80
2018-11-29T16:50:14.807Z,93.90
2018-11-29T16:52:43.056Z,93.90
2018-11-29T16:55:11.945Z,94.00
2018-11-29T16:57:42.248Z,94.00
2018-11-29T17:00:12.873Z,94.10
2018-11-29T17:02:41.114Z,94.20
2018-11-29T17:05:10.814Z,94.30
2018-11-29T17:07:39.057Z,94.40
2018-11-29T17:10:09.348Z,94.40
2018-11-29T17:12:37.573Z,94.40
2018-11-29T17:15:09.564Z,94.40
2018-11-29T17:17:37.796Z,94.40
2018-11-29T17:20:11.681Z,94.30
2018-11-29T17:22:39.940Z,94.50
2018-11-29T17:25:11.285Z,94.40
2018-11-29T17:27:39.634Z,94.30
2018-11-29T17:30:19.574Z,94.40
2018-11-29T17:32:48.228Z,94.40
2018-11-29T17:35:16.437Z,94.50
2018-11-29T17:37:44.638Z,94.60
2018-11-29T17:40:14.827Z,94.40
2018-11-29T17:42:43.175Z,94.20
2018-11-29T17:45:12.597Z,94.10
2018-11-29T17:47:41.105Z,94.00
2018-11-29T17:50:15.928Z,93.90
2018-11-29T17:52:44.161Z,94.00
2018-11-29T17:55:12.401Z,94.00
2018-11-29T17:57:40.873Z,94.10
2018-11-29T18:00:13.945Z,94.30
2018-11-29T18:02:42.177Z,94.40
2018-11-29T18:05:10.432Z,94.60
2018-11-29T18:07:38.662Z,94.60
2018-11-29T18:10:10.505Z,94.60
2018-11-29T18:12:38.743Z,94.60
2018-11-29T18:15:11.094Z,94.60
2018-11-29T18:17:39.318Z,94.50
2018-11-29T18:20:09.255Z,94.60
2018-11-29T18:22:37.487Z,94.60
2018-11-29T18:25:09.508Z,94.50
2018-11-29T18:27:38.002Z,94.40
2018-11-29T18:30:12.311Z,94.30
2018-11-29T18:32:40.637Z,94.20
2018-11-29T18:35:09.877Z,94.20
2018-11-29T18:37:38.170Z,94.20
2018-11-29T18:40:12.622Z,94.00
2018-11-29T18:42:40.826Z,94.10
2018-11-29T18:45:11.257Z,94.10
2018-11-29T18:47:39.869Z,94.50
2018-11-29T18:50:15.105Z,94.60
2018-11-29T18:52:43.333Z,94.60
2018-11-29T18:55:11.612Z,94.60
2018-11-29T18:57:40.016Z,94.40
2018-11-29T19:00:18.458Z,94.40
2018-11-29T19:02:47.505Z,94.40
2018-11-29T19:05:15.717Z,94.50
2018-11-29T19:07:44.092Z,94.50
2018-11-29T19:10:14.230Z,94.40
2018-11-29T19:12:43.968Z,94.50
2018-11-29T19:15:12.837Z,94.50
2018-11-29T19:17:41.068Z,94.60
2018-11-29T19:20:11.605Z,94.50
2018-11-29T19:22:39.828Z,94.50
2018-11-29T19:25:14.918Z,94.50
2018-11-29T19:27:43.158Z,94.60
2018-11-29T19:30:14.841Z,94.60
2018-11-29T19:32:43.218Z,94.60
2018-11-29T19:35:11.757Z,94.50
2018-11-29T19:37:39.996Z,94.40
2018-11-29T19:40:11.198Z,94.30
2018-11-29T19:42:39.460Z,94.30
2018-11-29T19:45:09.176Z,94.40
2018-11-29T19:47:37.389Z,94.50
2018-11-29T19:50:08.915Z,94.60
2018-11-29T19:52:37.169Z,94.50
2018-11-29T19:55:06.486Z,94.40
2018-11-29T19:57:35.016Z,94.50
2018-11-29T20:00:03.321Z,94.40
2018-11-29T20:02:31.561Z,94.30
2018-11-29T20:04:59.799Z,94.30
2018-11-29T20:07:27.969Z,94.50
2018-11-29T20:09:56.148Z,94.60
2018-11-29T20:12:24.361Z,94.60
2018-11-29T20:14:52.683Z,94.40
2018-11-29T20:17:21.142Z,94.10
2018-11-29T20:19:49.733Z,94.10
2018-11-29T20:22:18.142Z,94.10
2018-11-29T20:24:46.349Z,94.40
2018-11-29T20:27:14.553Z,94.20
2018-11-29T20:29:42.766Z,94.10
2018-11-29T20:32:11.026Z,94.00
2018-11-29T20:34:39.234Z,94.10
2018-11-29T20:37:07.435Z,94.00
2018-11-29T20:39:35.630Z,94.00
2018-11-29T20:42:03.847Z,94.00
2018-11-29T20:44:32.082Z,94.00
2018-11-29T20:47:00.383Z,94.00
2018-11-29T20:49:28.579Z,94.00
2018-11-29T20:51:56.813Z,93.90
2018-11-29T20:54:25.083Z,93.80
2018-11-29T20:56:53.249Z,93.80
2018-11-29T20:59:21.432Z,93.70
2018-11-29T21:01:49.632Z,93.70
2018-11-29T21:04:17.845Z,93.60
2018-11-29T21:06:46.056Z,93.50
2018-11-29T21:09:14.318Z,93.50
2018-11-29T21:11:47.619Z,93.60
2018-11-29T21:14:10.733Z,93.70
2018-11-29T21:16:38.917Z,93.60
2018-11-29T21:19:07.094Z,93.50
2018-11-29T21:21:35.262Z,93.40
2018-11-29T21:24:03.435Z,93.40
2018-11-29T21:26:31.629Z,93.30
2018-11-29T21:28:59.799Z,93.40
2018-11-29T21:31:27.989Z,93.70
2018-11-29T21:33:56.171Z,93.80
2018-11-29T21:36:24.341Z,93.90
2018-11-29T21:38:52.534Z,94.00
2018-11-29T21:41:20.725Z,94.00
2018-11-29T21:43:48.900Z,94.00
2018-11-29T21:46:17.096Z,93.90
2018-11-29T21:48:45.265Z,93.90
2018-11-29T21:51:13.432Z,93.90
2018-11-29T21:53:41.602Z,93.90
2018-11-29T21:56:09.799Z,93.70
2018-11-29T21:58:37.956Z,93.90
2018-11-29T22:01:06.160Z,93.80
2018-11-29T22:03:34.340Z,93.80
2018-11-29T22:06:02.510Z,93.70
2018-11-29T22:08:30.689Z,93.80
2018-11-29T22:10:58.861Z,93.90
2018-11-29T22:13:27.029Z,94.00
2018-11-29T22:15:55.207Z,94.20
2018-11-29T22:18:24.572Z,94.20
2018-11-29T22:20:56.717Z,94.20
2018-11-29T22:23:24.929Z,94.30
2018-11-29T22:25:53.893Z,94.30
2018-11-29T22:28:22.064Z,94.20
2018-11-29T22:30:50.242Z,94.30
2018-11-29T22:33:18.420Z,94.30
2018-11-29T22:35:46.593Z,94.30
2018-11-29T22:38:14.778Z,94.50
2018-11-29T22:40:42.935Z,94.50
2018-11-29T22:43:11.101Z,94.50
2018-11-29T22:45:39.293Z,94.40
2018-11-29T22:48:07.469Z,94.40
2018-11-29T22:50:35.665Z,94.30
2018-11-29T22:53:03.824Z,94.30
2018-11-29T22:55:31.997Z,94.30
2018-11-29T22:58:00.162Z,94.20
2018-11-29T23:00:33.897Z,94.20
2018-11-29T23:03:02.094Z,94.40
2018-11-29T23:05:30.312Z,94.40
2018-11-29T23:07:58.533Z,94.40
2018-11-29T23:10:26.740Z,94.30
2018-11-29T23:12:54.954Z,94.20
2018-11-29T23:15:23.178Z,94.10
2018-11-29T23:17:51.381Z,94.00
2018-11-29T23:22:54.134Z,94.10
2018-11-29T23:25:22.349Z,94.20
2018-11-29T23:27:50.578Z,94.20
2018-11-29T23:30:19.000Z,94.20
2018-11-29T23:32:47.201Z,94.40
2018-11-29T23:35:15.750Z,94.20
2018-11-29T23:37:43.987Z,94.20
2018-11-29T23:40:13.765Z,94.20
2018-11-29T23:42:42.981Z,94.20
2018-11-29T23:45:12.175Z,94.20
2018-11-29T23:47:40.425Z,94.30
2018-11-29T23:50:16.396Z,94.30
2018-11-29T23:52:44.638Z,94.30
2018-11-29T23:55:15.184Z,94.40
2018-11-29T23:57:43.421Z,94.30
